Time;durP1;ratioP1;P1;durP2;ratioP2;P2;SDS_P1;SDS_P2;PMS_P1;PMS_P2;Temp;Humidity;BMP_temperature;BMP_pressure;BME280_temperature;BME280_humidity;BME280_pressure;Samples;Min_cycle;Max_cycle;Signal;HPM_P1;HPM_P2
2024/01/03 00:00:23;;;;;;;6.90;1.00;;;13.90;99.90;;;;;;4956105;28;20619;-74
2024/01/03 00:02:49;;;;;;;2.13;0.70;;;13.90;99.90;;;;;;4942876;28;21333;-74
2024/01/03 00:05:21;;;;;;;8.57;1.60;;;13.80;99.90;;;;;;4956107;28;20702;-73
2024/01/03 00:07:47;;;;;;;4.43;0.80;;;13.80;99.90;;;;;;4971541;28;20237;-74
2024/01/03 00:10:41;;;;;;;4.10;0.90;;;13.70;99.90;;;;;;4973478;28;20639;-74
2024/01/03 00:13:26;;;;;;;7.23;1.77;;;13.70;99.90;;;;;;4973368;28;20579;-74
2024/01/03 00:16:12;;;;;;;5.77;1.13;;;13.70;99.90;;;;;;4955775;28;20639;-74
2024/01/03 00:18:54;;;;;;;7.13;1.10;;;13.70;99.90;;;;;;4962582;28;20657;-74
2024/01/03 00:21:27;;;;;;;3.23;0.80;;;13.70;99.90;;;;;;4962994;28;20642;-74
2024/01/03 00:23:58;;;;;;;4.03;1.00;;;13.60;99.90;;;;;;4972873;28;20575;-74
2024/01/03 00:26:29;;;;;;;3.00;0.80;;;13.60;99.90;;;;;;4939278;28;20591;-74
2024/01/03 00:28:56;;;;;;;9.30;1.20;;;13.60;99.90;;;;;;4955383;28;20619;-74
2024/01/03 00:31:41;;;;;;;5.63;1.03;;;13.60;99.90;;;;;;4981337;28;20583;-74
2024/01/03 00:34:36;;;;;;;6.80;1.43;;;13.50;99.90;;;;;;4972577;28;20606;-74
2024/01/03 00:37:29;;;;;;;6.80;1.23;;;13.50;99.90;;;;;;4954900;28;20591;-74
2024/01/03 00:39:56;;;;;;;2.90;0.80;;;13.50;99.90;;;;;;4959432;23;20666;-81
2024/01/03 00:42:21;;;;;;;4.10;0.80;;;13.50;99.90;;;;;;4998438;28;20581;-80
2024/01/03 00:44:47;;;;;;;4.70;1.20;;;13.50;99.90;;;;;;4994913;28;20592;-80
2024/01/03 00:47:14;;;;;;;3.03;0.80;;;13.40;99.90;;;;;;5011240;28;20181;-80
2024/01/03 00:49:41;;;;;;;7.23;0.93;;;13.40;99.90;;;;;;5027720;28;20197;-80
2024/01/03 00:52:07;;;;;;;6.83;0.90;;;13.40;99.90;;;;;;5003547;28;20696;-80
2024/01/03 00:54:34;;;;;;;5.67;1.00;;;13.40;99.90;;;;;;5012331;28;20202;-80
2024/01/03 00:57:04;;;;;;;4.10;0.90;;;13.40;99.90;;;;;;5012656;28;20643;-80
2024/01/03 00:59:34;;;;;;;4.20;1.53;;;13.30;99.90;;;;;;5000440;28;20592;-81
2024/01/03 01:02:04;;;;;;;4.78;0.80;;;13.30;99.90;;;;;;5018873;28;20592;-81
2024/01/03 01:04:31;;;;;;;4.10;1.00;;;13.30;99.90;;;;;;5011160;28;20183;-81
2024/01/03 01:06:57;;;;;;;2.83;0.83;;;13.30;99.90;;;;;;5030729;28;20650;-81
2024/01/03 01:09:26;;;;;;;2.60;0.67;;;13.30;99.90;;;;;;5025739;28;20656;-81
2024/01/03 01:11:51;;;;;;;6.83;0.90;;;13.30;99.90;;;;;;5018979;28;20691;-81
2024/01/03 01:14:17;;;;;;;3.50;0.70;;;13.40;99.90;;;;;;5018984;28;20635;-80
2024/01/03 01:16:43;;;;;;;3.60;0.70;;;13.40;99.90;;;;;;5018114;28;20537;-81
2024/01/03 01:19:08;;;;;;;2.57;0.70;;;13.40;99.90;;;;;;5011644;28;20178;-81
2024/01/03 01:21:34;;;;;;;2.60;0.70;;;13.40;99.90;;;;;;5010720;28;20233;-81
2024/01/03 01:24:00;;;;;;;4.23;0.70;;;13.40;99.90;;;;;;5011814;28;20615;-81
2024/01/03 01:26:26;;;;;;;3.57;0.70;;;13.40;99.90;;;;;;5025347;28;20178;-81
2024/01/03 01:28:52;;;;;;;3.17;0.60;;;13.50;99.90;;;;;;5028135;28;21125;-81
2024/01/03 01:31:17;;;;;;;5.77;0.60;;;13.50;99.90;;;;;;4982461;28;20202;-81
2024/01/03 01:33:43;;;;;;;2.63;0.80;;;13.40;99.90;;;;;;4998123;28;20182;-81
2024/01/03 01:36:09;;;;;;;2.77;0.77;;;13.40;99.90;;;;;;5010029;28;20233;-81
2024/01/03 01:38:34;;;;;;;3.40;0.60;;;13.40;99.90;;;;;;5029838;28;20180;-81
2024/01/03 01:41:00;;;;;;;2.60;0.60;;;13.40;99.90;;;;;;5012238;28;20692;-81
2024/01/03 01:43:26;;;;;;;1.23;0.50;;;13.30;99.90;;;;;;4988878;28;20178;-81
2024/01/03 01:45:52;;;;;;;3.40;0.80;;;13.30;99.90;;;;;;5021397;28;20720;-81
2024/01/03 01:48:19;;;;;;;2.47;0.77;;;13.20;99.90;;;;;;5006536;28;20198;-81
2024/01/03 01:50:47;;;;;;;2.60;0.50;;;13.20;99.90;;;;;;5013865;28;20634;-81
2024/01/03 01:53:14;;;;;;;3.30;0.60;;;13.10;99.90;;;;;;4999316;28;20633;-78
2024/01/03 01:55:40;;;;;;;1.93;0.63;;;13.10;99.90;;;;;;4990467;28;20661;-81
2024/01/03 01:58:07;;;;;;;2.87;0.60;;;13.10;99.90;;;;;;4981951;28;20190;-81
2024/01/03 02:00:33;;;;;;;2.97;0.70;;;13.10;99.90;;;;;;4984435;28;20620;-81
2024/01/03 02:02:59;;;;;;;3.43;0.70;;;13.00;99.90;;;;;;4986490;28;20582;-81
2024/01/03 02:05:25;;;;;;;2.93;0.60;;;13.00;99.90;;;;;;5014295;28;20693;-81
2024/01/03 02:07:51;;;;;;;2.27;0.80;;;12.90;99.90;;;;;;5015956;28;20672;-81
2024/01/03 02:10:17;;;;;;;5.20;0.90;;;12.90;99.90;;;;;;4973550;28;20661;-81
2024/01/03 02:12:42;;;;;;;4.33;0.80;;;12.90;99.90;;;;;;5013592;28;20932;-81
2024/01/03 02:15:08;;;;;;;6.20;0.70;;;12.80;99.90;;;;;;5009584;28;20206;-81
2024/01/03 02:17:37;;;;;;;3.83;1.07;;;12.80;99.90;;;;;;5009449;28;20174;-81
2024/01/03 02:20:04;;;;;;;4.00;0.70;;;12.80;99.90;;;;;;5007928;28;20629;-81
2024/01/03 02:22:30;;;;;;;4.07;0.80;;;12.80;99.90;;;;;;4978375;28;20590;-81
2024/01/03 02:24:56;;;;;;;4.00;0.90;;;12.70;99.90;;;;;;5012388;28;20596;-81
2024/01/03 02:27:22;;;;;;;4.47;0.77;;;12.70;99.90;;;;;;5009347;28;20592;-81
2024/01/03 02:29:47;;;;;;;2.00;0.60;;;12.70;99.90;;;;;;4992996;28;20663;-81
2024/01/03 02:32:13;;;;;;;2.27;0.80;;;12.70;99.90;;;;;;5010527;28;20596;-81
2024/01/03 02:34:39;;;;;;;4.53;0.90;;;12.70;99.90;;;;;;5017861;28;20198;-81
2024/01/03 02:37:09;;;;;;;3.10;0.60;;;12.60;99.90;;;;;;5018640;28;20171;-80
2024/01/03 02:39:35;;;;;;;4.50;0.70;;;12.60;99.90;;;;;;5016184;28;20651;-80
2024/01/03 02:42:00;;;;;;;2.33;0.63;;;12.60;99.90;;;;;;5009894;28;20253;-81
2024/01/03 02:44:27;;;;;;;4.47;0.90;;;12.60;99.90;;;;;;5001855;28;20234;-81
2024/01/03 02:46:54;;;;;;;3.77;0.70;;;12.60;99.90;;;;;;5020937;28;20628;-80
2024/01/03 02:49:20;;;;;;;7.33;1.00;;;12.60;99.90;;;;;;4996131;28;20593;-81
2024/01/03 02:51:46;;;;;;;3.23;1.00;;;12.60;99.90;;;;;;5015807;28;20590;-81
2024/01/03 02:54:11;;;;;;;3.87;0.70;;;12.60;99.90;;;;;;5018718;28;20185;-81
2024/01/03 02:56:39;;;;;;;3.23;0.90;;;12.60;99.90;;;;;;4999152;28;20650;-81
2024/01/03 02:59:04;;;;;;;3.33;1.03;;;12.60;99.90;;;;;;5003370;28;20182;-81
2024/01/03 03:01:30;;;;;;;4.57;0.90;;;12.70;99.90;;;;;;4993049;28;20617;-81
2024/01/03 03:03:56;;;;;;;3.43;0.60;;;12.70;99.90;;;;;;5020969;28;20173;-81
2024/01/03 03:06:21;;;;;;;7.10;0.83;;;12.70;99.90;;;;;;5009561;28;20269;-80
2024/01/03 03:08:47;;;;;;;1.80;0.60;;;12.80;99.90;;;;;;5025713;28;20174;-81
2024/01/03 03:11:13;;;;;;;3.03;0.90;;;12.80;99.90;;;;;;5002404;28;20292;-81
2024/01/03 03:13:38;;;;;;;4.10;0.83;;;12.80;99.90;;;;;;5009554;28;20170;-81
2024/01/03 03:16:07;;;;;;;4.80;0.60;;;12.80;99.90;;;;;;5018749;28;20237;-81
2024/01/03 03:18:33;;;;;;;2.40;0.53;;;12.80;99.90;;;;;;5017616;28;20182;-81
2024/01/03 03:21:00;;;;;;;5.10;1.03;;;12.80;99.90;;;;;;5003180;28;20636;-81
2024/01/03 03:23:27;;;;;;;2.37;0.60;;;12.80;99.90;;;;;;5013256;28;20182;-81
2024/01/03 03:25:52;;;;;;;4.50;0.70;;;12.80;99.90;;;;;;5028513;28;20631;-81
2024/01/03 03:28:18;;;;;;;4.27;0.77;;;12.80;99.90;;;;;;5024886;28;20605;-81
2024/01/03 03:30:44;;;;;;;7.10;1.47;;;12.70;99.90;;;;;;5012602;28;20198;-81
2024/01/03 03:33:10;;;;;;;5.43;1.20;;;12.70;99.90;;;;;;4997801;28;20943;-80
2024/01/03 03:35:35;;;;;;;2.53;0.70;;;12.60;99.90;;;;;;5028191;28;20601;-80
2024/01/03 03:38:01;;;;;;;4.30;0.80;;;12.60;99.90;;;;;;5020739;28;20182;-81
2024/01/03 03:40:27;;;;;;;5.30;0.70;;;12.50;99.90;;;;;;5019763;28;21025;-81
2024/01/03 03:42:52;;;;;;;3.43;0.60;;;12.50;99.90;;;;;;5011779;28;20217;-81
2024/01/03 03:45:18;;;;;;;2.30;0.70;;;12.40;99.90;;;;;;5011234;28;20710;-81
2024/01/03 03:47:45;;;;;;;4.37;1.00;;;12.40;99.90;;;;;;5014857;28;20690;-81
2024/01/03 03:50:10;;;;;;;5.47;0.90;;;12.40;99.90;;;;;;5019788;28;20272;-81
2024/01/03 03:52:39;;;;;;;4.03;0.80;;;12.40;99.90;;;;;;5013120;28;20174;-80
2024/01/03 03:55:06;;;;;;;3.05;1.08;;;12.40;99.90;;;;;;5011908;28;20635;-81
2024/01/03 03:57:31;;;;;;;3.83;1.10;;;12.30;99.90;;;;;;5013041;28;20635;-81
2024/01/03 03:59:57;;;;;;;4.03;1.00;;;12.30;99.90;;;;;;5011901;28;20655;-81
2024/01/03 04:02:24;;;;;;;3.83;1.17;;;12.30;99.90;;;;;;5017527;28;20178;-81
2024/01/03 04:04:50;;;;;;;4.60;0.88;;;12.30;99.90;;;;;;5029575;28;20183;-81
2024/01/03 04:07:16;;;;;;;6.28;0.90;;;12.40;99.90;;;;;;4995909;28;20198;-81
2024/01/03 04:09:44;;;;;;;4.23;0.83;;;12.40;99.90;;;;;;4993694;28;20552;-81
2024/01/03 04:12:10;;;;;;;2.13;1.00;;;12.40;99.90;;;;;;4992363;28;20167;-81
2024/01/03 04:14:39;;;;;;;4.20;0.90;;;12.40;99.90;;;;;;4998098;28;20206;-79
2024/01/03 04:17:05;;;;;;;7.80;1.00;;;12.40;99.90;;;;;;5011586;28;20590;-81
2024/01/03 04:19:31;;;;;;;4.17;0.90;;;12.40;99.90;;;;;;5012795;28;20573;-81
2024/01/03 04:21:58;;;;;;;3.73;0.97;;;12.40;99.90;;;;;;5013108;28;20578;-81
2024/01/03 04:24:23;;;;;;;8.80;1.50;;;12.30;99.90;;;;;;5011791;28;20190;-81
2024/01/03 04:26:53;;;;;;;4.90;0.87;;;12.30;99.90;;;;;;5020966;28;20593;-81
2024/01/03 04:29:19;;;;;;;3.80;1.17;;;12.30;99.90;;;;;;5011330;28;20313;-81
2024/01/03 04:31:45;;;;;;;3.93;0.80;;;12.30;99.90;;;;;;5021090;28;20614;-80
2024/01/03 04:34:10;;;;;;;3.73;0.87;;;12.30;99.90;;;;;;5026299;28;20655;-81
2024/01/03 04:36:36;;;;;;;4.37;0.90;;;12.30;99.90;;;;;;5004267;28;20261;-81
2024/01/03 04:39:02;;;;;;;3.13;0.97;;;12.30;99.90;;;;;;5003020;28;20248;-79
2024/01/03 04:41:28;;;;;;;5.53;1.30;;;12.30;99.90;;;;;;5004387;28;20640;-80
2024/01/03 04:43:54;;;;;;;4.53;1.10;;;12.30;99.90;;;;;;5019763;28;20597;-80
2024/01/03 04:46:20;;;;;;;5.37;0.80;;;12.30;99.90;;;;;;5008118;28;20718;-79
2024/01/03 04:48:46;;;;;;;4.60;0.90;;;12.30;99.90;;;;;;4992336;28;20598;-80
2024/01/03 04:51:11;;;;;;;5.27;1.10;;;12.30;99.90;;;;;;4982679;28;20286;-80
2024/01/03 04:53:38;;;;;;;2.47;0.80;;;12.30;99.90;;;;;;4974548;28;20186;-79
2024/01/03 04:56:04;;;;;;;3.73;0.87;;;12.40;99.90;;;;;;4998514;28;20206;-79
2024/01/03 04:58:30;;;;;;;6.00;1.00;;;12.40;99.90;;;;;;4990811;28;21251;-80
2024/01/03 05:00:55;;;;;;;5.37;0.77;;;12.50;99.90;;;;;;4990635;28;20614;-80
2024/01/03 05:03:21;;;;;;;6.23;1.43;;;12.50;99.90;;;;;;4990882;28;20206;-81
2024/01/03 05:05:47;;;;;;;5.10;1.20;;;12.50;99.90;;;;;;4992077;28;20184;-80
2024/01/03 05:08:13;;;;;;;3.10;0.83;;;12.60;99.90;;;;;;4973618;28;20582;-81
2024/01/03 05:10:38;;;;;;;8.10;1.00;;;12.60;99.90;;;;;;4993909;28;20202;-81
2024/01/03 05:13:04;;;;;;;3.30;0.80;;;12.70;99.90;;;;;;5016882;28;20189;-81
2024/01/03 05:15:30;;;;;;;4.30;1.17;;;12.70;99.90;;;;;;4996385;28;20213;-79
2024/01/03 05:17:55;;;;;;;5.60;1.50;;;12.80;99.90;;;;;;5021091;28;20588;-78
2024/01/03 05:20:21;;;;;;;2.07;0.70;;;12.80;99.90;;;;;;4996989;28;20600;-78
2024/01/03 05:22:47;;;;;;;6.20;0.87;;;12.80;99.90;;;;;;5017419;28;20607;-78
2024/01/03 05:25:12;;;;;;;4.20;0.90;;;12.80;99.90;;;;;;5011316;28;20186;-79
2024/01/03 05:27:38;;;;;;;2.70;0.73;;;12.80;99.90;;;;;;5001951;28;20185;-78
2024/01/03 05:30:04;;;;;;;6.30;1.10;;;12.80;99.90;;;;;;5011682;28;20561;-79
2024/01/03 05:32:30;;;;;;;5.00;1.43;;;12.80;99.90;;;;;;4982565;28;20531;-79
2024/01/03 05:34:56;;;;;;;2.90;0.90;;;12.90;99.90;;;;;;4989205;28;20706;-78
2024/01/03 05:37:21;;;;;;;8.33;1.43;;;12.90;99.90;;;;;;5002089;28;20558;-79
2024/01/03 05:39:47;;;;;;;5.50;1.10;;;12.90;99.90;;;;;;5005688;28;20209;-79
2024/01/03 05:42:13;;;;;;;6.10;0.90;;;12.90;99.90;;;;;;5016869;28;20831;-78
2024/01/03 05:44:38;;;;;;;6.90;1.40;;;12.90;99.90;;;;;;5003329;28;20208;-79
2024/01/03 05:47:05;;;;;;;6.53;0.97;;;12.90;99.90;;;;;;5014529;28;20185;-79
2024/01/03 05:49:30;;;;;;;5.93;1.13;;;12.90;99.90;;;;;;5009855;28;20185;-79
2024/01/03 05:51:56;;;;;;;10.63;1.63;;;13.00;99.90;;;;;;5009931;28;20672;-79
2024/01/03 05:54:22;;;;;;;10.27;2.10;;;13.00;99.90;;;;;;5011022;28;20202;-79
2024/01/03 05:56:47;;;;;;;6.10;1.00;;;13.00;99.90;;;;;;5009908;28;20629;-79
2024/01/03 05:59:13;;;;;;;10.07;1.50;;;13.00;99.90;;;;;;4993243;28;20183;-79
2024/01/03 06:01:39;;;;;;;5.00;0.97;;;13.00;99.90;;;;;;5010906;28;20210;-78
2024/01/03 06:04:05;;;;;;;9.03;1.10;;;13.00;99.90;;;;;;4995361;28;20700;-79
2024/01/03 06:06:31;;;;;;;4.93;1.17;;;13.00;99.90;;;;;;5010710;28;20340;-79
2024/01/03 06:08:56;;;;;;;8.40;2.50;;;13.00;99.90;;;;;;5006668;28;20720;-79
2024/01/03 06:11:22;;;;;;;4.63;1.03;;;13.00;99.90;;;;;;5002062;28;20206;-79
2024/01/03 06:13:51;;;;;;;6.80;1.10;;;13.00;99.90;;;;;;4999218;28;20692;-79
2024/01/03 06:16:16;;;;;;;7.50;1.20;;;13.10;99.90;;;;;;5006790;28;20285;-78
2024/01/03 06:18:42;;;;;;;7.10;1.20;;;13.10;99.90;;;;;;4980694;28;20681;-78
2024/01/03 06:21:11;;;;;;;9.50;1.23;;;13.10;99.90;;;;;;5017586;28;20681;-77
2024/01/03 06:23:39;;;;;;;7.00;1.27;;;13.10;99.90;;;;;;5010092;28;20185;-78
2024/01/03 06:26:06;;;;;;;10.47;1.40;;;13.10;99.90;;;;;;5025668;28;20920;-77
2024/01/03 06:28:32;;;;;;;7.33;1.10;;;13.10;99.90;;;;;;4985229;28;20585;-78
2024/01/03 06:30:59;;;;;;;8.33;1.30;;;13.10;99.90;;;;;;4995863;28;20609;-77
2024/01/03 06:33:25;;;;;;;7.40;1.00;;;13.10;99.90;;;;;;4989585;28;20648;-78
2024/01/03 06:35:50;;;;;;;7.47;1.70;;;13.10;99.90;;;;;;5000889;28;20632;-78
2024/01/03 06:38:16;;;;;;;7.60;1.93;;;13.10;99.90;;;;;;4994355;28;20516;-78
2024/01/03 06:40:42;;;;;;;8.67;1.43;;;13.10;99.90;;;;;;5012695;28;20690;-78
2024/01/03 06:43:07;;;;;;;5.93;0.97;;;13.20;99.90;;;;;;5016680;28;20597;-79
2024/01/03 06:45:33;;;;;;;7.17;1.10;;;13.20;99.90;;;;;;5010393;28;20726;-79
2024/01/03 06:47:59;;;;;;;8.57;2.07;;;13.20;99.90;;;;;;5002877;28;20606;-79
2024/01/03 06:50:24;;;;;;;6.57;1.33;;;13.20;99.90;;;;;;5016066;28;20193;-78
2024/01/03 06:52:50;;;;;;;6.33;1.20;;;13.20;99.90;;;;;;5009622;28;20182;-78
2024/01/03 06:55:16;;;;;;;5.73;1.43;;;13.30;99.90;;;;;;5025478;28;20206;-78
2024/01/03 06:57:42;;;;;;;5.37;1.47;;;13.30;99.90;;;;;;5008195;28;20595;-79
2024/01/03 07:00:08;;;;;;;7.40;1.20;;;13.30;99.90;;;;;;5010519;28;20198;-78
2024/01/03 07:02:33;;;;;;;9.47;1.27;;;13.40;99.90;;;;;;5028198;28;20704;-79
2024/01/03 07:04:59;;;;;;;6.20;1.53;;;13.40;99.90;;;;;;5002642;28;20765;-76
2024/01/03 07:07:25;;;;;;;4.37;1.20;;;13.40;99.90;;;;;;4992483;28;20625;-77
2024/01/03 07:09:50;;;;;;;9.30;1.20;;;13.40;99.90;;;;;;4976429;28;20198;-76
2024/01/03 07:12:16;;;;;;;5.03;0.90;;;13.40;99.90;;;;;;4992703;28;20187;-76
2024/01/03 07:14:42;;;;;;;2.60;1.00;;;13.40;99.90;;;;;;5000419;28;20699;-76
2024/01/03 07:17:08;;;;;;;3.90;1.20;;;13.40;99.90;;;;;;4992652;28;20627;-76
2024/01/03 07:19:33;;;;;;;6.07;0.90;;;13.40;99.90;;;;;;4996682;28;20210;-76
2024/01/03 07:21:59;;;;;;;4.43;1.20;;;13.40;99.90;;;;;;5002004;28;20194;-76
2024/01/03 07:24:25;;;;;;;4.60;0.90;;;13.30;99.90;;;;;;4977715;28;20282;-77
2024/01/03 07:26:50;;;;;;;6.57;0.90;;;13.40;99.90;;;;;;4999417;28;20660;-75
2024/01/03 07:29:16;;;;;;;3.57;0.80;;;13.30;99.90;;;;;;5000921;28;20243;-77
2024/01/03 07:31:42;;;;;;;5.63;1.00;;;13.40;99.90;;;;;;5001286;28;20191;-76
2024/01/03 07:34:07;;;;;;;6.90;1.77;;;13.40;99.90;;;;;;4983319;28;20213;-77
2024/01/03 07:36:33;;;;;;;4.87;1.10;;;13.30;99.90;;;;;;5002255;28;20175;-77
2024/01/03 07:39:00;;;;;;;4.47;1.20;;;13.40;99.90;;;;;;5000609;28;20665;-77
2024/01/03 07:41:26;;;;;;;6.80;2.60;;;13.40;99.90;;;;;;5016775;28;21064;-76
2024/01/03 07:43:52;;;;;;;4.23;0.87;;;13.30;99.90;;;;;;5010036;28;20614;-76
2024/01/03 07:46:18;;;;;;;3.03;0.90;;;13.30;99.90;;;;;;4992813;28;20270;-77
2024/01/03 07:48:44;;;;;;;2.60;0.60;;;13.30;99.90;;;;;;5000786;28;20179;-77
2024/01/03 07:51:11;;;;;;;5.13;0.90;;;13.30;99.90;;;;;;5000450;28;20605;-76
2024/01/03 07:53:37;;;;;;;2.42;0.65;;;13.30;99.90;;;;;;5008004;28;20187;-76
2024/01/03 07:56:06;;;;;;;2.67;0.80;;;13.20;99.90;;;;;;4991426;28;20218;-76
2024/01/03 07:58:32;;;;;;;2.53;0.60;;;13.20;99.90;;;;;;5002554;28;20586;-76
2024/01/03 08:00:57;;;;;;;1.83;0.70;;;13.20;99.90;;;;;;4984282;28;20637;-76
2024/01/03 08:03:23;;;;;;;3.30;0.80;;;13.20;99.90;;;;;;4975526;28;20215;-76
2024/01/03 08:05:49;;;;;;;4.47;1.13;;;13.20;99.90;;;;;;4975753;28;20183;-76
2024/01/03 08:08:14;;;;;;;1.70;0.60;;;13.20;99.90;;;;;;4982506;28;20710;-76
2024/01/03 08:10:40;;;;;;;3.40;1.10;;;13.20;99.90;;;;;;4993054;28;20195;-76
2024/01/03 08:13:06;;;;;;;3.33;0.90;;;13.20;99.90;;;;;;4990682;28;20764;-76
2024/01/03 08:15:33;;;;;;;7.07;0.73;;;13.30;99.90;;;;;;5007133;28;20210;-76
2024/01/03 08:17:58;;;;;;;9.47;1.10;;;13.30;99.90;;;;;;5008938;28;20606;-76
2024/01/03 08:20:24;;;;;;;5.10;1.10;;;13.30;99.90;;;;;;4996538;28;20620;-76
2024/01/03 08:22:51;;;;;;;2.93;0.90;;;13.30;99.90;;;;;;4991541;28;20186;-76
2024/01/03 08:25:17;;;;;;;3.47;0.90;;;13.30;99.90;;;;;;5000502;28;20270;-77
2024/01/03 08:27:43;;;;;;;4.00;1.00;;;13.30;99.90;;;;;;4992165;28;20590;-76
2024/01/03 08:30:09;;;;;;;5.77;0.80;;;13.30;99.90;;;;;;4991347;28;20624;-76
2024/01/03 08:32:36;;;;;;;5.10;0.90;;;13.30;99.90;;;;;;4991593;28;20189;-76
2024/01/03 08:35:03;;;;;;;4.30;0.90;;;13.40;99.90;;;;;;4999538;28;20673;-76
2024/01/03 08:37:30;;;;;;;7.03;1.00;;;13.30;99.90;;;;;;4990685;28;20607;-76
2024/01/03 08:39:56;;;;;;;4.47;1.00;;;13.40;99.90;;;;;;4990932;28;21282;-76
2024/01/03 08:42:25;;;;;;;3.83;0.80;;;13.40;99.90;;;;;;4992422;28;20599;-76
2024/01/03 08:44:53;;;;;;;4.30;1.07;;;13.40;99.90;;;;;;4992128;28;20179;-75
2024/01/03 08:47:19;;;;;;;5.43;1.10;;;13.50;99.90;;;;;;4998383;28;20596;-75
2024/01/03 08:49:45;;;;;;;3.10;0.80;;;13.50;99.90;;;;;;4992065;28;20621;-76
2024/01/03 08:52:11;;;;;;;4.40;1.13;;;13.50;99.90;;;;;;4990937;28;20175;-76
2024/01/03 08:54:37;;;;;;;4.50;1.13;;;13.50;99.90;;;;;;4990549;28;21055;-76
2024/01/03 08:57:03;;;;;;;2.53;0.70;;;13.50;99.90;;;;;;4991605;28;20592;-76
2024/01/03 08:59:29;;;;;;;3.70;1.00;;;13.50;99.90;;;;;;4982442;28;20313;-76
2024/01/03 09:01:58;;;;;;;2.10;0.90;;;13.50;99.90;;;;;;4974357;28;20745;-76
2024/01/03 09:04:23;;;;;;;3.20;0.70;;;13.50;99.90;;;;;;4990598;28;20186;-77
2024/01/03 09:06:52;;;;;;;2.67;1.43;;;13.50;99.90;;;;;;4991609;28;20689;-77
2024/01/03 09:09:18;;;;;;;2.03;0.50;;;13.50;99.90;;;;;;4991845;28;20325;-76
2024/01/03 09:11:44;;;;;;;2.43;0.57;;;13.50;99.90;;;;;;4999931;28;20717;-76
2024/01/03 09:14:09;;;;;;;1.53;0.53;;;13.50;99.90;;;;;;4990438;28;20589;-76
2024/01/03 09:16:36;;;;;;;2.60;0.60;;;13.40;99.90;;;;;;5008273;28;20542;-77
2024/01/03 09:19:02;;;;;;;2.90;0.60;;;13.40;99.90;;;;;;5010194;28;20182;-77
2024/01/03 09:21:30;;;;;;;2.03;0.60;;;13.40;99.90;;;;;;5026789;28;20759;-77
2024/01/03 09:23:57;;;;;;;1.97;0.60;;;13.40;99.90;;;;;;5026583;28;20590;-78
2024/01/03 09:26:23;;;;;;;1.60;0.60;;;13.30;99.90;;;;;;5009139;28;21174;-78
2024/01/03 09:28:49;;;;;;;3.40;0.73;;;13.30;99.90;;;;;;5026299;28;20695;-77
2024/01/03 09:31:15;;;;;;;2.87;0.67;;;13.30;99.90;;;;;;5026399;28;20629;-77
2024/01/03 09:33:41;;;;;;;5.27;0.77;;;13.30;99.90;;;;;;5026300;28;20589;-77
2024/01/03 09:36:16;;;;;;;3.13;1.00;;;13.40;99.90;;;;;;5025685;28;21228;-77
2024/01/03 09:38:42;;;;;;;4.00;0.80;;;13.40;99.90;;;;;;5026083;28;20610;-77
2024/01/03 09:41:12;;;;;;;2.73;0.70;;;13.30;99.90;;;;;;5025862;28;21009;-76
2024/01/03 09:43:41;;;;;;;4.10;1.20;;;13.30;99.90;;;;;;5012183;28;20272;-77
2024/01/03 09:46:09;;;;;;;6.53;1.00;;;13.40;99.90;;;;;;5015374;28;20750;-77
2024/01/03 09:48:35;;;;;;;4.47;1.00;;;13.40;99.90;;;;;;5012330;28;20589;-77
2024/01/03 09:51:03;;;;;;;3.80;1.10;;;13.40;99.90;;;;;;5015275;28;20637;-77
2024/01/03 09:53:31;;;;;;;5.30;1.10;;;13.40;99.90;;;;;;5010648;28;20585;-76
2024/01/03 09:55:56;;;;;;;4.50;1.20;;;13.40;99.90;;;;;;5010755;28;20648;-77
2024/01/03 09:58:24;;;;;;;6.03;1.60;;;13.50;99.90;;;;;;5026553;28;21147;-77
2024/01/03 10:00:50;;;;;;;5.03;1.10;;;13.50;99.90;;;;;;5025859;28;20221;-78
2024/01/03 10:03:16;;;;;;;4.37;1.10;;;13.60;99.90;;;;;;5026024;28;20593;-77
2024/01/03 10:05:43;;;;;;;5.13;0.90;;;13.60;99.90;;;;;;5010690;28;21149;-77
2024/01/03 10:08:18;;;;;;;8.70;1.87;;;13.80;99.90;;;;;;5025390;28;20593;-77
2024/01/03 10:10:48;;;;;;;11.00;1.37;;;13.90;99.90;;;;;;5025560;28;20613;-77
2024/01/03 10:13:18;;;;;;;12.87;3.00;;;14.10;99.90;;;;;;5010458;28;20600;-77
2024/01/03 10:15:46;;;;;;;7.73;1.60;;;14.20;99.90;;;;;;5011415;28;20637;-77
2024/01/03 10:18:15;;;;;;;7.17;1.70;;;14.40;99.90;;;;;;5010247;28;20680;-77
2024/01/03 10:20:44;;;;;;;5.77;1.60;;;14.50;99.90;;;;;;5025646;28;20625;-78
2024/01/03 10:23:19;;;;;;;4.93;1.20;;;14.60;99.90;;;;;;5026935;28;20590;-77
2024/01/03 10:25:45;;;;;;;6.90;1.20;;;14.70;99.90;;;;;;5011374;28;20663;-77
2024/01/03 10:28:17;;;;;;;5.80;1.37;;;14.70;99.90;;;;;;4992356;28;21174;-77
2024/01/03 10:30:51;;;;;;;6.60;1.10;;;14.80;99.90;;;;;;5002564;28;20659;-77
2024/01/03 10:33:17;;;;;;;5.97;1.00;;;14.70;99.90;;;;;;4998765;28;20597;-78
2024/01/03 10:35:46;;;;;;;2.97;0.80;;;14.70;99.90;;;;;;4994665;28;20633;-77
2024/01/03 10:38:20;;;;;;;7.80;1.40;;;14.70;99.90;;;;;;4993174;28;20574;-78
2024/01/03 10:40:47;;;;;;;6.20;1.20;;;14.80;99.90;;;;;;4996163;28;20666;-78
2024/01/03 10:43:15;;;;;;;6.10;1.50;;;14.80;99.90;;;;;;5006183;28;20586;-79
2024/01/03 10:45:41;;;;;;;6.10;1.03;;;14.70;99.90;;;;;;4994567;28;20591;-78
2024/01/03 10:48:07;;;;;;;7.50;1.10;;;14.70;99.90;;;;;;4992543;28;21230;-77
2024/01/03 10:50:34;;;;;;;9.33;1.43;;;14.70;99.90;;;;;;4993097;28;20672;-77
2024/01/03 10:53:06;;;;;;;5.27;1.23;;;14.70;99.90;;;;;;4981773;28;20599;-78
2024/01/03 10:55:37;;;;;;;5.70;0.90;;;14.70;99.90;;;;;;5005011;28;20642;-78
2024/01/03 10:58:13;;;;;;;4.20;1.20;;;14.70;99.90;;;;;;4976439;28;20673;-78
2024/01/03 11:01:08;;;;;;;9.40;2.10;;;14.70;99.90;;;;;;4979551;28;20625;-79
2024/01/03 11:03:50;;;;;;;4.07;1.33;;;14.70;99.90;;;;;;4994430;28;21017;-79
2024/01/03 11:06:22;;;;;;;7.70;2.67;;;14.70;99.90;;;;;;5024806;28;20597;-79
2024/01/03 11:08:50;;;;;;;6.60;1.70;;;14.70;99.90;;;;;;4993048;28;20908;-79
2024/01/03 11:11:45;;;;;;;7.40;2.60;;;14.80;99.90;;;;;;4992759;28;20620;-77
2024/01/03 11:14:34;;;;;;;3.50;1.27;;;14.80;99.90;;;;;;4992330;28;20590;-77
2024/01/03 11:17:00;;;;;;;5.50;1.10;;;14.80;99.90;;;;;;5006122;28;21006;-78
2024/01/03 11:19:31;;;;;;;6.70;1.50;;;14.80;99.90;;;;;;5004701;28;21176;-78
2024/01/03 11:21:59;;;;;;;5.40;1.43;;;14.90;99.90;;;;;;4992458;28;20594;-77
2024/01/03 11:24:30;;;;;;;2.90;0.80;;;14.90;99.90;;;;;;4993586;28;20585;-77
2024/01/03 11:26:56;;;;;;;2.53;0.90;;;15.00;99.90;;;;;;4975178;28;21462;-77
2024/01/03 11:32:12;;;;;;;5.37;1.10;;;15.00;99.90;;;;;;4992445;28;20594;-77
2024/01/03 11:34:44;;;;;;;3.20;1.03;;;15.10;99.90;;;;;;4976192;28;20645;-78
2024/01/03 11:37:19;;;;;;;6.27;1.27;;;15.10;99.90;;;;;;5002360;28;20620;-79
2024/01/03 11:39:46;;;;;;;6.50;1.63;;;15.10;99.90;;;;;;4981986;28;21223;-79
2024/01/03 11:42:28;;;;;;;4.80;1.73;;;15.10;99.90;;;;;;5011555;28;20637;-78
2024/01/03 11:45:12;;;;;;;5.43;1.47;;;15.10;99.90;;;;;;4991781;28;20593;-78
2024/01/03 11:47:43;;;;;;;5.40;1.60;;;15.10;99.90;;;;;;4990444;28;20590;-79
2024/01/03 11:50:14;;;;;;;3.60;1.10;;;15.00;99.90;;;;;;4991898;28;20645;-78
2024/01/03 11:52:47;;;;;;;3.40;1.23;;;15.00;99.90;;;;;;4993701;28;20630;-78
2024/01/03 11:55:16;;;;;;;8.90;1.97;;;15.00;99.90;;;;;;4989644;28;21234;-78
2024/01/03 11:57:46;;;;;;;6.20;1.20;;;14.90;99.90;;;;;;5033023;28;20600;-79
2024/01/03 12:00:14;;;;;;;7.83;1.30;;;14.90;99.90;;;;;;5034942;28;20715;-78
2024/01/03 12:02:49;;;;;;;9.53;1.80;;;14.80;99.90;;;;;;5015116;28;21417;-78
2024/01/03 12:05:19;;;;;;;10.33;2.03;;;14.80;99.90;;;;;;5020287;28;21515;-78
2024/01/03 12:07:46;;;;;;;3.43;1.17;;;14.80;99.90;;;;;;5030398;28;20595;-78
2024/01/03 12:10:12;;;;;;;11.00;1.87;;;14.90;99.90;;;;;;5047446;28;20628;-77
2024/01/03 12:12:38;;;;;;;4.13;1.13;;;14.90;99.90;;;;;;5012976;28;21216;-76
2024/01/03 12:15:04;;;;;;;7.30;1.10;;;15.00;99.90;;;;;;5015326;28;20747;-77
2024/01/03 12:17:31;;;;;;;6.50;1.40;;;15.10;99.90;;;;;;5013774;28;20730;-77
2024/01/03 12:20:12;;;;;;;5.03;1.30;;;15.20;99.90;;;;;;4996605;28;20624;-77
2024/01/03 12:22:39;;;;;;;3.57;0.90;;;15.20;99.90;;;;;;5013834;28;20584;-77
2024/01/03 12:25:05;;;;;;;6.80;1.87;;;15.30;99.90;;;;;;5031362;28;20939;-78
2024/01/03 12:27:33;;;;;;;9.07;1.63;;;15.40;99.90;;;;;;5015813;28;20600;-76
2024/01/03 12:30:19;;;;;;;4.37;1.13;;;15.40;99.90;;;;;;5011435;28;20624;-77
2024/01/03 12:32:47;;;;;;;6.47;1.00;;;15.40;99.90;;;;;;5023565;28;20593;-77
2024/01/03 12:35:13;;;;;;;5.60;1.33;;;15.40;99.90;;;;;;4996880;28;20643;-78
2024/01/03 12:37:46;;;;;;;7.03;1.20;;;15.40;99.90;;;;;;5011517;28;20592;-78
2024/01/03 12:40:14;;;;;;;8.70;2.63;;;15.40;99.90;;;;;;5029846;28;20651;-78
2024/01/03 12:42:41;;;;;;;9.90;2.17;;;15.50;99.90;;;;;;5013137;28;20593;-78
2024/01/03 12:45:07;;;;;;;3.80;1.03;;;15.50;99.90;;;;;;5016928;28;20599;-77
2024/01/03 12:47:33;;;;;;;6.57;1.60;;;15.60;99.90;;;;;;4998215;28;20662;-77
2024/01/03 12:49:59;;;;;;;9.57;1.77;;;15.70;99.90;;;;;;5014743;28;20628;-77